sensor_id;sensor_type;location;lat;lon;timestamp;pressure;altitude;pressure_sealevel;temperature;humidity
12172;BME280;6149;52.418;13.668;2023-03-22T00:02:03;100752.53;;;9.71;100.00
12172;BME280;6149;52.418;13.668;2023-03-22T00:04:32;100743.75;;;9.71;100.00
12172;BME280;6149;52.418;13.668;2023-03-22T00:06:58;100739.38;;;9.70;100.00
12172;BME280;6149;52.418;13.668;2023-03-22T00:09:28;100743.88;;;9.68;100.00
12172;BME280;6149;52.418;13.668;2023-03-22T00:11:57;100737.81;;;9.66;100.00
12172;BME280;6149;52.418;13.668;2023-03-22T00:14:24;100733.50;;;9.65;100.00
12172;BME280;6149;52.418;13.668;2023-03-22T00:16:50;100738.06;;;9.61;100.00
12172;BME280;6149;52.418;13.668;2023-03-22T00:19:17;100740.00;;;9.58;100.00
12172;BME280;6149;52.418;13.668;2023-03-22T00:21:46;100740.13;;;9.55;100.00
12172;BME280;6149;52.418;13.668;2023-03-22T00:24:15;100737.78;;;9.49;100.00
12172;BME280;6149;52.418;13.668;2023-03-22T00:26:46;100730.91;;;9.45;100.00
12172;BME280;6149;52.418;13.668;2023-03-22T00:29:12;100725.72;;;9.43;100.00
12172;BME280;6149;52.418;13.668;2023-03-22T00:31:41;100727.56;;;9.41;100.00
12172;BME280;6149;52.418;13.668;2023-03-22T00:34:12;100726.72;;;9.41;100.00
12172;BME280;6149;52.418;13.668;2023-03-22T00:36:38;100724.13;;;9.39;100.00
12172;BME280;6149;52.418;13.668;2023-03-22T00:39:07;100725.06;;;9.38;100.00
12172;BME280;6149;52.418;13.668;2023-03-22T00:41:37;100733.06;;;9.36;100.00
12172;BME280;6149;52.418;13.668;2023-03-22T00:44:05;100726.13;;;9.34;100.00
12172;BME280;6149;52.418;13.668;2023-03-22T00:46:32;100729.84;;;9.30;100.00
12172;BME280;6149;52.418;13.668;2023-03-22T00:48:59;100729.06;;;9.28;100.00
12172;BME280;6149;52.418;13.668;2023-03-22T00:51:27;100722.09;;;9.27;100.00
12172;BME280;6149;52.418;13.668;2023-03-22T00:53:54;100716.72;;;9.28;100.00
12172;BME280;6149;52.418;13.668;2023-03-22T00:56:20;100713.84;;;9.33;100.00
12172;BME280;6149;52.418;13.668;2023-03-22T00:58:49;100715.72;;;9.31;100.00
12172;BME280;6149;52.418;13.668;2023-03-22T01:01:17;100714.00;;;9.30;100.00
12172;BME280;6149;52.418;13.668;2023-03-22T01:03:45;100711.28;;;9.31;100.00
12172;BME280;6149;52.418;13.668;2023-03-22T01:06:15;100709.66;;;9.29;100.00
12172;BME280;6149;52.418;13.668;2023-03-22T01:08:42;100707.97;;;9.28;100.00
12172;BME280;6149;52.418;13.668;2023-03-22T01:11:16;100710.59;;;9.28;100.00
12172;BME280;6149;52.418;13.668;2023-03-22T01:13:44;100717.56;;;9.29;100.00
12172;BME280;6149;52.418;13.668;2023-03-22T01:16:12;100714.00;;;9.30;100.00
12172;BME280;6149;52.418;13.668;2023-03-22T01:18:43;100714.00;;;9.30;100.00
12172;BME280;6149;52.418;13.668;2023-03-22T01:21:12;100720.06;;;9.32;100.00
12172;BME280;6149;52.418;13.668;2023-03-22T01:23:42;100715.56;;;9.34;100.00
12172;BME280;6149;52.418;13.668;2023-03-22T01:26:10;100710.22;;;9.35;100.00
12172;BME280;6149;52.418;13.668;2023-03-22T01:28:37;100711.22;;;9.33;100.00
12172;BME280;6149;52.418;13.668;2023-03-22T01:31:07;100706.00;;;9.31;100.00
12172;BME280;6149;52.418;13.668;2023-03-22T01:33:49;100702.53;;;9.31;100.00
12172;BME280;6149;52.418;13.668;2023-03-22T01:36:16;100700.81;;;9.30;100.00
12172;BME280;6149;52.418;13.668;2023-03-22T01:38:44;100694.78;;;9.28;100.00
12172;BME280;6149;52.418;13.668;2023-03-22T01:41:12;100701.72;;;9.29;100.00
12172;BME280;6149;52.418;13.668;2023-03-22T01:43:41;100690.25;;;9.30;100.00
12172;BME280;6149;52.418;13.668;2023-03-22T01:46:08;100687.69;;;9.28;100.00
12172;BME280;6149;52.418;13.668;2023-03-22T01:48:41;100677.06;;;9.30;100.00
12172;BME280;6149;52.418;13.668;2023-03-22T01:51:18;100674.50;;;9.28;100.00
12172;BME280;6149;52.418;13.668;2023-03-22T01:53:48;100677.91;;;9.30;100.00
12172;BME280;6149;52.418;13.668;2023-03-22T01:56:18;100677.13;;;9.28;100.00
12172;BME280;6149;52.418;13.668;2023-03-22T01:58:47;100675.44;;;9.27;100.00
12172;BME280;6149;52.418;13.668;2023-03-22T02:01:16;100672.03;;;9.25;100.00
12172;BME280;6149;52.418;13.668;2023-03-22T02:03:46;100671.16;;;9.25;100.00
12172;BME280;6149;52.418;13.668;2023-03-22T02:06:17;100662.47;;;9.23;100.00
12172;BME280;6149;52.418;13.668;2023-03-22T02:08:46;100666.03;;;9.22;100.00
12172;BME280;6149;52.418;13.668;2023-03-22T02:11:16;100664.38;;;9.19;100.00
12172;BME280;6149;52.418;13.668;2023-03-22T02:13:58;100664.53;;;9.16;100.00
12172;BME280;6149;52.418;13.668;2023-03-22T02:16:47;100661.09;;;9.14;100.00
12172;BME280;6149;52.418;13.668;2023-03-22T02:19:39;100657.63;;;9.14;100.00
12172;BME280;6149;52.418;13.668;2023-03-22T02:23:21;100649.84;;;9.11;100.00
12172;BME280;6149;52.418;13.668;2023-03-22T02:30:22;100645.69;;;9.05;100.00
12172;BME280;6149;52.418;13.668;2023-03-22T02:33:07;100645.78;;;9.03;100.00
12172;BME280;6149;52.418;13.668;2023-03-22T02:35:56;100656.69;;;9.15;100.00
12172;BME280;6149;52.418;13.668;2023-03-22T02:39:08;100648.53;;;9.00;100.00
12172;BME280;6149;52.418;13.668;2023-03-22T02:42:07;100650.59;;;8.94;100.00
12172;BME280;6149;52.418;13.668;2023-03-22T02:45:02;100653.53;;;8.88;100.00
12172;BME280;6149;52.418;13.668;2023-03-22T02:47:38;100668.50;;;8.87;100.00
12172;BME280;6149;52.418;13.668;2023-03-22T02:50:12;100660.81;;;8.83;100.00
12172;BME280;6149;52.418;13.668;2023-03-22T02:52:47;100651.38;;;8.77;100.00
12172;BME280;6149;52.418;13.668;2023-03-22T02:55:25;100649.25;;;8.85;100.00
12172;BME280;6149;52.418;13.668;2023-03-22T02:58:00;100650.38;;;8.80;100.00
12172;BME280;6149;52.418;13.668;2023-03-22T03:00:30;100650.53;;;8.77;100.00
12172;BME280;6149;52.418;13.668;2023-03-22T03:03:00;100647.16;;;8.73;100.00
12172;BME280;6149;52.418;13.668;2023-03-22T03:05:36;100649.00;;;8.71;100.00
12172;BME280;6149;52.418;13.668;2023-03-22T03:08:09;100640.38;;;8.67;100.00
12172;BME280;6149;52.418;13.668;2023-03-22T03:10:42;100641.25;;;8.68;100.00
12172;BME280;6149;52.418;13.668;2023-03-22T03:13:14;100646.66;;;8.65;100.00
12172;BME280;6149;52.418;13.668;2023-03-22T03:15:44;100645.94;;;8.61;100.00
12172;BME280;6149;52.418;13.668;2023-03-22T03:18:26;100637.16;;;8.61;100.00
12172;BME280;6149;52.418;13.668;2023-03-22T03:21:03;100642.50;;;8.59;100.00
12172;BME280;6149;52.418;13.668;2023-03-22T03:23:46;100641.03;;;8.54;100.00
12172;BME280;6149;52.418;13.668;2023-03-22T03:26:23;100652.56;;;8.51;100.00
12172;BME280;6149;52.418;13.668;2023-03-22T03:28:58;100644.91;;;8.45;100.00
12172;BME280;6149;52.418;13.668;2023-03-22T03:31:33;100636.47;;;8.37;100.00
12172;BME280;6149;52.418;13.668;2023-03-22T03:34:12;100645.44;;;8.33;100.00
12172;BME280;6149;52.418;13.668;2023-03-22T03:36:49;100639.47;;;8.28;100.00
12172;BME280;6149;52.418;13.668;2023-03-22T03:39:23;100643.09;;;8.25;100.00
12172;BME280;6149;52.418;13.668;2023-03-22T03:41:54;100648.47;;;8.22;100.00
12172;BME280;6149;52.418;13.668;2023-03-22T03:44:23;100652.91;;;8.22;100.00
12172;BME280;6149;52.418;13.668;2023-03-22T03:46:51;100661.94;;;8.16;100.00
12172;BME280;6149;52.418;13.668;2023-03-22T03:49:19;100656.81;;;8.13;100.00
12172;BME280;6149;52.418;13.668;2023-03-22T03:51:50;100653.38;;;8.11;100.00
12172;BME280;6149;52.418;13.668;2023-03-22T03:54:18;100661.41;;;8.08;100.00
12172;BME280;6149;52.418;13.668;2023-03-22T03:56:47;100653.56;;;8.07;100.00
12172;BME280;6149;52.418;13.668;2023-03-22T03:59:19;100661.41;;;8.08;100.00
12172;BME280;6149;52.418;13.668;2023-03-22T04:01:47;100651.06;;;8.03;100.00
12172;BME280;6149;52.418;13.668;2023-03-22T04:04:17;100652.16;;;7.98;100.00
12172;BME280;6149;52.418;13.668;2023-03-22T04:06:51;100648.88;;;7.93;100.00
12172;BME280;6149;52.418;13.668;2023-03-22T04:09:21;100648.94;;;7.91;100.00
12172;BME280;6149;52.418;13.668;2023-03-22T04:11:48;100645.56;;;7.88;100.00
12172;BME280;6149;52.418;13.668;2023-03-22T04:14:16;100642.19;;;7.84;100.00
12172;BME280;6149;52.418;13.668;2023-03-22T04:16:47;100647.59;;;7.81;100.00
12172;BME280;6149;52.418;13.668;2023-03-22T04:19:15;100655.69;;;7.77;100.00
12172;BME280;6149;52.418;13.668;2023-03-22T04:21:42;100653.97;;;7.76;100.00
12172;BME280;6149;52.418;13.668;2023-03-22T04:24:11;100651.53;;;7.71;100.00
12172;BME280;6149;52.418;13.668;2023-03-22T04:26:39;100656.06;;;7.67;100.00
12172;BME280;6149;52.418;13.668;2023-03-22T04:29:07;100649.16;;;7.65;100.00
12172;BME280;6149;52.418;13.668;2023-03-22T04:31:36;100648.28;;;7.64;100.00
12172;BME280;6149;52.418;13.668;2023-03-22T04:34:05;100654.47;;;7.63;100.00
12172;BME280;6149;52.418;13.668;2023-03-22T04:36:33;100656.31;;;7.61;100.00
12172;BME280;6149;52.418;13.668;2023-03-22T04:39:04;100658.06;;;7.61;100.00
12172;BME280;6149;52.418;13.668;2023-03-22T04:41:34;100657.16;;;7.62;100.00
12172;BME280;6149;52.418;13.668;2023-03-22T04:44:01;100645.72;;;7.63;100.00
12172;BME280;6149;52.418;13.668;2023-03-22T04:46:28;100648.97;;;7.69;100.00
12172;BME280;6149;52.418;13.668;2023-03-22T04:48:56;100653.31;;;7.70;100.00
12172;BME280;6149;52.418;13.668;2023-03-22T04:51:27;100647.06;;;7.73;100.00
12172;BME280;6149;52.418;13.668;2023-03-22T04:53:54;100646.16;;;7.74;100.00
12172;BME280;6149;52.418;13.668;2023-03-22T04:56:21;100647.00;;;7.75;100.00
12172;BME280;6149;52.418;13.668;2023-03-22T04:58:48;100653.13;;;7.75;100.00
12172;BME280;6149;52.418;13.668;2023-03-22T05:01:16;100644.38;;;7.75;100.00
12172;BME280;6149;52.418;13.668;2023-03-22T05:03:43;100639.09;;;7.75;100.00
12172;BME280;6149;52.418;13.668;2023-03-22T05:06:13;100636.41;;;7.76;100.00
12172;BME280;6149;52.418;13.668;2023-03-22T05:08:43;100643.34;;;7.79;100.00
12172;BME280;6149;52.418;13.668;2023-03-22T05:11:12;100632.81;;;7.79;100.00
12172;BME280;6149;52.418;13.668;2023-03-22T05:13:41;100630.00;;;7.82;100.00
12172;BME280;6149;52.418;13.668;2023-03-22T05:16:12;100625.53;;;7.84;100.00
12172;BME280;6149;52.418;13.668;2023-03-22T05:18:40;100622.00;;;7.85;100.00
12172;BME280;6149;52.418;13.668;2023-03-22T05:21:12;100627.13;;;7.88;100.00
12172;BME280;6149;52.418;13.668;2023-03-22T05:23:43;100614.75;;;7.90;100.00
12172;BME280;6149;52.418;13.668;2023-03-22T05:26:13;100626.94;;;7.92;100.00
12172;BME280;6149;52.418;13.668;2023-03-22T05:28:41;100622.53;;;7.93;100.00
12172;BME280;6149;52.418;13.668;2023-03-22T05:31:11;100616.41;;;7.92;100.00
12172;BME280;6149;52.418;13.668;2023-03-22T05:33:41;100621.44;;;7.98;100.00
12172;BME280;6149;52.418;13.668;2023-03-22T05:36:10;100625.03;;;7.96;100.00
12172;BME280;6149;52.418;13.668;2023-03-22T05:38:38;100624.25;;;7.94;100.00
12172;BME280;6149;52.418;13.668;2023-03-22T05:41:10;100624.13;;;7.97;100.00
12172;BME280;6149;52.418;13.668;2023-03-22T05:43:41;100624.97;;;7.97;100.00
12172;BME280;6149;52.418;13.668;2023-03-22T05:46:11;100621.50;;;7.97;100.00
12172;BME280;6149;52.418;13.668;2023-03-22T05:48:38;100620.56;;;7.98;100.00
12172;BME280;6149;52.418;13.668;2023-03-22T05:51:07;100610.91;;;7.98;100.00
12172;BME280;6149;52.418;13.668;2023-03-22T05:53:42;100610.84;;;8.00;100.00
12172;BME280;6149;52.418;13.668;2023-03-22T05:56:15;100615.19;;;8.01;100.00
12172;BME280;6149;52.418;13.668;2023-03-22T05:58:47;100615.19;;;8.01;100.00
12172;BME280;6149;52.418;13.668;2023-03-22T06:01:13;100604.56;;;8.02;100.00
12172;BME280;6149;52.418;13.668;2023-03-22T06:03:42;100615.84;;;8.06;100.00
12172;BME280;6149;52.418;13.668;2023-03-22T06:06:11;100602.69;;;8.06;100.00
12172;BME280;6149;52.418;13.668;2023-03-22T06:08:41;100602.59;;;8.08;100.00
12172;BME280;6149;52.418;13.668;2023-03-22T06:11:08;100608.72;;;8.08;100.00
12172;BME280;6149;52.418;13.668;2023-03-22T06:13:42;100602.41;;;8.12;100.00
12172;BME280;6149;52.418;13.668;2023-03-22T06:16:08;100597.09;;;8.14;100.00
12172;BME280;6149;52.418;13.668;2023-03-22T06:18:37;100590.84;;;8.16;100.00
12172;BME280;6149;52.418;13.668;2023-03-22T06:21:07;100601.19;;;8.19;100.00
12172;BME280;6149;52.418;13.668;2023-03-22T06:23:34;100600.22;;;8.22;100.00
12172;BME280;6149;52.418;13.668;2023-03-22T06:26:00;100592.25;;;8.23;100.00
12172;BME280;6149;52.418;13.668;2023-03-22T06:28:29;100607.00;;;8.27;100.00
12172;BME280;6149;52.418;13.668;2023-03-22T06:31:05;100593.69;;;8.30;100.00
12172;BME280;6149;52.418;13.668;2023-03-22T06:33:33;100595.31;;;8.34;100.00
12172;BME280;6149;52.418;13.668;2023-03-22T06:36:01;100605.72;;;8.37;100.00
12172;BME280;6149;52.418;13.668;2023-03-22T06:38:28;100606.50;;;8.40;100.00
12172;BME280;6149;52.418;13.668;2023-03-22T06:40:55;100603.75;;;8.43;100.00
12172;BME280;6149;52.418;13.668;2023-03-22T06:43:23;100607.81;;;8.50;100.00
12172;BME280;6149;52.418;13.668;2023-03-22T06:45:51;100607.75;;;8.51;100.00
12172;BME280;6149;52.418;13.668;2023-03-22T06:48:19;100608.44;;;8.55;100.00
12172;BME280;6149;52.418;13.668;2023-03-22T06:50:47;100605.66;;;8.58;100.00
12172;BME280;6149;52.418;13.668;2023-03-22T06:53:13;100608.16;;;8.61;100.00
12172;BME280;6149;52.418;13.668;2023-03-22T06:55:40;100613.25;;;8.65;100.00
12172;BME280;6149;52.418;13.668;2023-03-22T06:58:09;100617.53;;;8.68;100.00
12172;BME280;6149;52.418;13.668;2023-03-22T07:00:39;100623.31;;;8.76;100.00
12172;BME280;6149;52.418;13.668;2023-03-22T07:03:08;100628.56;;;8.76;100.00
12172;BME280;6149;52.418;13.668;2023-03-22T07:05:38;100623.25;;;8.78;100.00
12172;BME280;6149;52.418;13.668;2023-03-22T07:08:06;100624.94;;;8.79;100.00
12172;BME280;6149;52.418;13.668;2023-03-22T07:10:33;100629.22;;;8.81;100.00
12172;BME280;6149;52.418;13.668;2023-03-22T07:13:01;100619.47;;;8.83;100.00
12172;BME280;6149;52.418;13.668;2023-03-22T07:15:28;100623.63;;;8.89;100.00
12172;BME280;6149;52.418;13.668;2023-03-22T07:17:56;100617.47;;;8.88;100.00
12172;BME280;6149;52.418;13.668;2023-03-22T07:20:23;100617.31;;;8.91;100.00
12172;BME280;6149;52.418;13.668;2023-03-22T07:22:51;100616.31;;;8.94;100.00
12172;BME280;6149;52.418;13.668;2023-03-22T07:25:21;100619.66;;;8.97;100.00
12172;BME280;6149;52.418;13.668;2023-03-22T07:27:48;100614.19;;;9.02;100.00
12172;BME280;6149;52.418;13.668;2023-03-22T07:30:16;100618.25;;;9.09;100.00
12172;BME280;6149;52.418;13.668;2023-03-22T07:32:44;100618.03;;;9.14;100.00
12172;BME280;6149;52.418;13.668;2023-03-22T07:35:12;100622.97;;;9.21;100.00
12172;BME280;6149;52.418;13.668;2023-03-22T07:37:41;100611.94;;;9.30;100.00
12172;BME280;6149;52.418;13.668;2023-03-22T07:40:14;100609.09;;;9.35;100.00
12172;BME280;6149;52.418;13.668;2023-03-22T07:42:42;100614.78;;;9.45;100.00
12172;BME280;6149;52.418;13.668;2023-03-22T07:45:09;100608.28;;;9.52;100.00
12172;BME280;6149;52.418;13.668;2023-03-22T07:47:37;100606.13;;;9.60;100.00
12172;BME280;6149;52.418;13.668;2023-03-22T07:50:05;100603.56;;;9.76;100.00
12172;BME280;6149;52.418;13.668;2023-03-22T07:52:34;100601.72;;;9.78;100.00
12172;BME280;6149;52.418;13.668;2023-03-22T07:55:01;100600.72;;;9.80;100.00
12172;BME280;6149;52.418;13.668;2023-03-22T07:57:29;100602.53;;;9.97;100.00
12172;BME280;6149;52.418;13.668;2023-03-22T07:59:56;100606.72;;;10.01;100.00
12172;BME280;6149;52.418;13.668;2023-03-22T08:02:24;100605.53;;;10.06;100.00
12172;BME280;6149;52.418;13.668;2023-03-22T08:04:51;100607.94;;;10.11;100.00
12172;BME280;6149;52.418;13.668;2023-03-22T08:07:19;100608.47;;;10.18;100.00
12172;BME280;6149;52.418;13.668;2023-03-22T08:09:47;100603.53;;;10.29;100.00
12172;BME280;6149;52.418;13.668;2023-03-22T08:12:14;100596.16;;;10.35;100.00
12172;BME280;6149;52.418;13.668;2023-03-22T08:14:44;100597.34;;;10.46;100.00
12172;BME280;6149;52.418;13.668;2023-03-22T08:17:15;100595.25;;;10.52;100.00
12172;BME280;6149;52.418;13.668;2023-03-22T08:19:43;100596.84;;;10.72;100.00
12172;BME280;6149;52.418;13.668;2023-03-22T08:22:12;100590.09;;;10.82;100.00
12172;BME280;6149;52.418;13.668;2023-03-22T08:24:42;100583.63;;;11.03;100.00
12172;BME280;6149;52.418;13.668;2023-03-22T08:27:10;100587.72;;;11.25;100.00
12172;BME280;6149;52.418;13.668;2023-03-22T08:29:42;100587.75;;;11.55;100.00
12172;BME280;6149;52.418;13.668;2023-03-22T08:32:13;100593.03;;;11.86;100.00
12172;BME280;6149;52.418;13.668;2023-03-22T08:34:42;100589.69;;;12.13;100.00
12172;BME280;6149;52.418;13.668;2023-03-22T08:37:11;100578.47;;;12.52;100.00
12172;BME280;6149;52.418;13.668;2023-03-22T08:39:38;100577.78;;;12.62;100.00
12172;BME280;6149;52.418;13.668;2023-03-22T08:42:08;100576.47;;;12.69;100.00
12172;BME280;6149;52.418;13.668;2023-03-22T08:44:34;100573.06;;;12.82;100.00
12172;BME280;6149;52.418;13.668;2023-03-22T08:47:02;100572.75;;;12.86;100.00
12172;BME280;6149;52.418;13.668;2023-03-22T08:49:29;100576.09;;;12.90;100.00
12172;BME280;6149;52.418;13.668;2023-03-22T08:51:57;100572.16;;;13.10;100.00
12172;BME280;6149;52.418;13.668;2023-03-22T08:54:24;100572.34;;;13.21;100.00
12172;BME280;6149;52.418;13.668;2023-03-22T08:56:52;100561.44;;;13.25;100.00
12172;BME280;6149;52.418;13.668;2023-03-22T08:59:23;100570.91;;;13.29;99.57
12172;BME280;6149;52.418;13.668;2023-03-22T09:01:50;100566.06;;;13.36;100.00
12172;BME280;6149;52.418;13.668;2023-03-22T09:04:19;100557.09;;;13.37;100.00
12172;BME280;6149;52.418;13.668;2023-03-22T09:06:46;100553.81;;;13.33;96.08
12172;BME280;6149;52.418;13.668;2023-03-22T09:09:14;100554.44;;;13.37;97.79
12172;BME280;6149;52.418;13.668;2023-03-22T09:11:41;100556.69;;;13.43;99.74
12172;BME280;6149;52.418;13.668;2023-03-22T09:14:12;100544.31;;;13.56;100.00
12172;BME280;6149;52.418;13.668;2023-03-22T09:16:41;100549.34;;;13.61;98.14
12172;BME280;6149;52.418;13.668;2023-03-22T09:19:11;100540.22;;;13.65;96.66
12172;BME280;6149;52.418;13.668;2023-03-22T09:21:40;100532.03;;;13.81;98.07
12172;BME280;6149;52.418;13.668;2023-03-22T09:24:11;100524.41;;;13.89;97.10
12172;BME280;6149;52.418;13.668;2023-03-22T09:26:40;100525.59;;;13.97;95.02
12172;BME280;6149;52.418;13.668;2023-03-22T09:29:08;100522.59;;;14.15;94.38
12172;BME280;6149;52.418;13.668;2023-03-22T09:31:44;100521.66;;;14.54;96.86
12172;BME280;6149;52.418;13.668;2023-03-22T09:34:14;100513.97;;;14.98;92.12
12172;BME280;6149;52.418;13.668;2023-03-22T09:36:49;100516.78;;;15.45;88.95
12172;BME280;6149;52.418;13.668;2023-03-22T09:39:18;100518.06;;;15.63;86.90
12172;BME280;6149;52.418;13.668;2023-03-22T09:41:48;100519.00;;;15.97;85.65
12172;BME280;6149;52.418;13.668;2023-03-22T09:44:22;100520.59;;;15.99;79.89
12172;BME280;6149;52.418;13.668;2023-03-22T09:46:54;100508.34;;;15.86;81.16
12172;BME280;6149;52.418;13.668;2023-03-22T09:49:29;100508.75;;;15.68;80.45
12172;BME280;6149;52.418;13.668;2023-03-22T09:52:05;100507.28;;;15.64;82.39
12172;BME280;6149;52.418;13.668;2023-03-22T09:54:38;100515.91;;;15.68;80.31
12172;BME280;6149;52.418;13.668;2023-03-22T09:57:11;100513.56;;;15.87;82.12
12172;BME280;6149;52.418;13.668;2023-03-22T09:59:51;100513.38;;;16.24;82.28
12172;BME280;6149;52.418;13.668;2023-03-22T10:02:35;100516.28;;;16.54;80.29
12172;BME280;6149;52.418;13.668;2023-03-22T10:05:17;100509.00;;;17.01;75.40
12172;BME280;6149;52.418;13.668;2023-03-22T10:08:03;100514.69;;;16.96;74.51
12172;BME280;6149;52.418;13.668;2023-03-22T10:10:39;100516.41;;;16.86;72.65
12172;BME280;6149;52.418;13.668;2023-03-22T10:13:15;100517.88;;;16.46;73.22
12172;BME280;6149;52.418;13.668;2023-03-22T10:15:46;100518.84;;;16.22;72.64
12172;BME280;6149;52.418;13.668;2023-03-22T10:18:19;100518.34;;;16.28;74.72
12172;BME280;6149;52.418;13.668;2023-03-22T10:20:54;100514.81;;;16.39;76.32
12172;BME280;6149;52.418;13.668;2023-03-22T10:23:29;100502.09;;;16.54;74.91
12172;BME280;6149;52.418;13.668;2023-03-22T10:25:59;100502.63;;;16.70;73.66
12172;BME280;6149;52.418;13.668;2023-03-22T10:28:34;100507.41;;;16.98;74.88
12172;BME280;6149;52.418;13.668;2023-03-22T10:31:04;100499.69;;;17.16;70.39
12172;BME280;6149;52.418;13.668;2023-03-22T10:33:38;100486.16;;;16.97;73.47
12172;BME280;6149;52.418;13.668;2023-03-22T10:36:16;100492.50;;;16.74;72.71
12172;BME280;6149;52.418;13.668;2023-03-22T10:38:52;100482.59;;;16.64;72.72
12172;BME280;6149;52.418;13.668;2023-03-22T10:41:22;100480.38;;;16.58;72.81
12172;BME280;6149;52.418;13.668;2023-03-22T10:43:55;100482.06;;;16.59;73.14
12172;BME280;6149;52.418;13.668;2023-03-22T10:46:26;100478.66;;;16.80;73.50
12172;BME280;6149;52.418;13.668;2023-03-22T10:48:57;100478.91;;;16.88;72.43
12172;BME280;6149;52.418;13.668;2023-03-22T10:51:28;100469.66;;;16.92;71.08
12172;BME280;6149;52.418;13.668;2023-03-22T10:54:00;100465.66;;;16.86;72.01
12172;BME280;6149;52.418;13.668;2023-03-22T10:56:28;100473.31;;;16.91;70.09
12172;BME280;6149;52.418;13.668;2023-03-22T10:58:56;100464.91;;;16.95;70.72
12172;BME280;6149;52.418;13.668;2023-03-22T11:01:26;100461.69;;;17.13;69.59
12172;BME280;6149;52.418;13.668;2023-03-22T11:03:58;100456.56;;;17.21;65.89
12172;BME280;6149;52.418;13.668;2023-03-22T11:06:27;100453.63;;;17.24;67.41
12172;BME280;6149;52.418;13.668;2023-03-22T11:09:01;100453.59;;;17.35;65.91
12172;BME280;6149;52.418;13.668;2023-03-22T11:11:47;100449.44;;;17.10;63.37
12172;BME280;6149;52.418;13.668;2023-03-22T11:14:19;100447.88;;;17.08;65.80
12172;BME280;6149;52.418;13.668;2023-03-22T11:16:52;100451.78;;;17.03;67.87
12172;BME280;6149;52.418;13.668;2023-03-22T11:19:24;100449.25;;;17.02;65.66
12172;BME280;6149;52.418;13.668;2023-03-22T11:21:53;100445.75;;;16.90;65.75
12172;BME280;6149;52.418;13.668;2023-03-22T11:24:24;100441.03;;;16.83;65.31
12172;BME280;6149;52.418;13.668;2023-03-22T11:27:05;100438.59;;;16.80;64.34
12172;BME280;6149;52.418;13.668;2023-03-22T11:29:44;100434.72;;;16.73;63.58
12172;BME280;6149;52.418;13.668;2023-03-22T11:32:24;100431.56;;;16.79;65.41
12172;BME280;6149;52.418;13.668;2023-03-22T11:35:04;100425.38;;;16.78;65.47
12172;BME280;6149;52.418;13.668;2023-03-22T11:37:39;100431.69;;;16.77;66.54
12172;BME280;6149;52.418;13.668;2023-03-22T11:40:16;100425.25;;;16.80;65.80
12172;BME280;6149;52.418;13.668;2023-03-22T11:42:47;100421.97;;;16.76;64.77
12172;BME280;6149;52.418;13.668;2023-03-22T11:45:24;100414.75;;;16.67;64.17
12172;BME280;6149;52.418;13.668;2023-03-22T11:48:00;100413.38;;;16.61;63.90
12172;BME280;6149;52.418;13.668;2023-03-22T11:50:35;100413.41;;;16.39;62.67
12172;BME280;6149;52.418;13.668;2023-03-22T11:53:06;100396.69;;;16.26;64.10
12172;BME280;6149;52.418;13.668;2023-03-22T11:55:42;100407.13;;;16.29;67.30
12172;BME280;6149;52.418;13.668;2023-03-22T12:02:09;100418.13;;;16.58;67.73
12172;BME280;6149;52.418;13.668;2023-03-22T12:04:47;100416.06;;;16.61;65.22
12172;BME280;6149;52.418;13.668;2023-03-22T12:07:17;100415.56;;;16.56;65.62
12172;BME280;6149;52.418;13.668;2023-03-22T12:09:51;100419.09;;;16.68;67.15
12172;BME280;6149;52.418;13.668;2023-03-22T12:12:28;100407.41;;;16.80;65.19
12172;BME280;6149;52.418;13.668;2023-03-22T12:14:59;100406.31;;;16.71;63.81
12172;BME280;6149;52.418;13.668;2023-03-22T12:17:35;100397.09;;;16.76;64.69
12172;BME280;6149;52.418;13.668;2023-03-22T12:20:16;100391.38;;;16.80;64.69
12172;BME280;6149;52.418;13.668;2023-03-22T12:22:53;100393.81;;;16.83;62.58
12172;BME280;6149;52.418;13.668;2023-03-22T12:25:28;100378.50;;;16.85;61.19
12172;BME280;6149;52.418;13.668;2023-03-22T12:28:02;100383.03;;;17.06;60.21
12172;BME280;6149;52.418;13.668;2023-03-22T12:30:38;100379.84;;;17.12;60.75
12172;BME280;6149;52.418;13.668;2023-03-22T12:33:17;100381.16;;;17.17;60.96
12172;BME280;6149;52.418;13.668;2023-03-22T12:35:50;100377.78;;;17.36;60.93
12172;BME280;6149;52.418;13.668;2023-03-22T12:38:25;100379.91;;;17.21;60.48
12172;BME280;6149;52.418;13.668;2023-03-22T12:40:56;100371.84;;;17.32;60.13
12172;BME280;6149;52.418;13.668;2023-03-22T12:43:38;100370.34;;;17.40;60.15
12172;BME280;6149;52.418;13.668;2023-03-22T12:46:19;100358.31;;;17.55;60.78
12172;BME280;6149;52.418;13.668;2023-03-22T12:48:51;100351.88;;;17.57;60.07
12172;BME280;6149;52.418;13.668;2023-03-22T12:51:21;100357.22;;;17.78;59.65
12172;BME280;6149;52.418;13.668;2023-03-22T12:53:51;100339.94;;;17.61;58.80
12172;BME280;6149;52.418;13.668;2023-03-22T12:56:23;100343.97;;;17.56;58.83
12172;BME280;6149;52.418;13.668;2023-03-22T12:58:57;100325.19;;;17.46;60.14
12172;BME280;6149;52.418;13.668;2023-03-22T13:01:35;100326.34;;;17.44;59.83
12172;BME280;6149;52.418;13.668;2023-03-22T13:04:29;100334.63;;;17.41;59.77
12172;BME280;6149;52.418;13.668;2023-03-22T13:07:35;100329.16;;;17.42;60.05
12172;BME280;6149;52.418;13.668;2023-03-22T13:13:44;100325.09;;;17.27;61.33
12172;BME280;6149;52.418;13.668;2023-03-22T13:16:24;100327.50;;;17.30;61.13
12172;BME280;6149;52.418;13.668;2023-03-22T13:19:28;100324.72;;;17.31;61.27
12172;BME280;6149;52.418;13.668;2023-03-22T13:22:20;100328.75;;;17.26;60.91
12172;BME280;6149;52.418;13.668;2023-03-22T13:25:23;100319.81;;;17.16;60.47
12172;BME280;6149;52.418;13.668;2023-03-22T13:27:56;100330.63;;;17.14;61.29